createdAt,value
2023-03-12T00:02:01.493Z,-1.40
2023-03-12T00:04:28.464Z,-1.40
2023-03-12T00:06:55.146Z,-1.40
2023-03-12T00:09:21.971Z,-1.30
2023-03-12T00:11:48.785Z,-1.40
2023-03-12T00:14:16.919Z,-1.40
2023-03-12T00:16:43.639Z,-1.50
2023-03-12T00:19:12.787Z,-1.60
2023-03-12T00:21:40.277Z,-1.60
2023-03-12T00:24:08.296Z,-1.60
2023-03-12T00:26:35.482Z,-1.70
2023-03-12T00:29:02.467Z,-1.60
2023-03-12T00:31:32.836Z,-1.70
2023-03-12T00:34:01.450Z,-1.80
2023-03-12T00:36:31.469Z,-1.70
2023-03-12T00:38:59.536Z,-1.70
2023-03-12T00:41:27.394Z,-1.70
2023-03-12T00:43:54.528Z,-1.80
2023-03-12T00:46:22.069Z,-1.80
2023-03-12T00:48:49.039Z,-1.80
2023-03-12T00:51:16.264Z,-1.80
2023-03-12T00:53:43.355Z,-1.80
2023-03-12T00:56:12.484Z,-1.90
2023-03-12T00:58:39.542Z,-1.80
2023-03-12T01:01:06.432Z,-1.80
2023-03-12T01:03:33.311Z,-1.70
2023-03-12T01:06:00.416Z,-1.60
2023-03-12T01:08:27.377Z,-1.70
2023-03-12T01:10:54.187Z,-1.80
2023-03-12T01:13:21.554Z,-1.70
2023-03-12T01:15:48.518Z,-1.60
2023-03-12T01:18:15.401Z,-1.60
2023-03-12T01:20:42.250Z,-1.60
2023-03-12T01:23:09.502Z,-1.60
2023-03-12T01:25:36.966Z,-1.50
2023-03-12T01:28:04.312Z,-1.50
2023-03-12T01:30:31.486Z,-1.50
2023-03-12T01:32:58.544Z,-1.50
2023-03-12T01:35:25.914Z,-1.50
2023-03-12T01:37:53.109Z,-1.50
2023-03-12T01:40:21.748Z,-1.50
2023-03-12T01:42:58.423Z,-1.40
2023-03-12T01:46:03.165Z,-1.40
2023-03-12T01:48:35.628Z,-1.40
2023-03-12T01:51:03.367Z,-1.40
2023-03-12T01:53:30.888Z,-1.40
2023-03-12T01:56:00.380Z,-1.40
2023-03-12T01:58:30.049Z,-1.50
2023-03-12T02:00:57.279Z,-1.50
2023-03-12T02:03:24.162Z,-1.50
2023-03-12T02:06:00.329Z,-1.50
2023-03-12T02:08:27.253Z,-1.50
2023-03-12T02:10:54.220Z,-1.50
2023-03-12T02:13:21.198Z,-1.40
2023-03-12T02:15:48.105Z,-1.50
2023-03-12T02:18:19.527Z,-1.40
2023-03-12T02:21:15.929Z,-1.40
2023-03-12T02:24:08.499Z,-1.40
2023-03-12T02:26:38.013Z,-1.40
2023-03-12T02:29:05.564Z,-1.30
2023-03-12T02:31:38.515Z,-1.30
2023-03-12T02:34:06.191Z,-1.30
2023-03-12T02:36:33.093Z,-1.30
2023-03-12T02:38:59.773Z,-1.30
2023-03-12T02:41:42.905Z,-1.20
2023-03-12T02:44:23.147Z,-1.20
2023-03-12T02:46:58.428Z,-1.20
2023-03-12T02:49:28.748Z,-1.20
2023-03-12T02:51:56.312Z,-1.20
2023-03-12T02:54:24.069Z,-1.20
2023-03-12T02:56:52.174Z,-1.10
2023-03-12T02:59:25.971Z,-1.10
2023-03-12T03:01:57.791Z,-1.20
2023-03-12T03:04:25.572Z,-1.10
2023-03-12T03:06:52.563Z,-1.10
2023-03-12T03:09:22.124Z,-1.10
2023-03-12T03:11:50.636Z,-1.10
2023-03-12T03:14:18.158Z,-1.10
2023-03-12T03:16:44.866Z,-1.00
2023-03-12T03:19:11.626Z,-1.10
2023-03-12T03:21:38.361Z,-1.10
2023-03-12T03:24:05.688Z,-1.10
2023-03-12T03:26:32.540Z,-1.00
2023-03-12T03:28:59.269Z,-1.00
2023-03-12T03:31:26.541Z,-1.00
2023-03-12T03:33:53.319Z,-1.00
2023-03-12T03:36:20.237Z,-1.00
2023-03-12T03:38:49.423Z,-0.90
2023-03-12T03:41:18.244Z,-0.90
2023-03-12T03:43:45.310Z,-0.90
2023-03-12T03:46:13.918Z,-1.00
2023-03-12T03:48:41.469Z,-0.90
2023-03-12T03:51:10.489Z,-0.90
2023-03-12T03:53:37.372Z,-0.90
2023-03-12T03:56:09.101Z,-0.90
2023-03-12T03:58:38.691Z,-0.90
2023-03-12T04:01:06.344Z,-0.80
2023-03-12T04:03:33.719Z,-0.80
2023-03-12T04:06:02.163Z,-0.80
2023-03-12T04:08:29.514Z,-0.70
2023-03-12T04:10:56.319Z,-0.70
2023-03-12T04:13:23.189Z,-0.80
2023-03-12T04:15:52.858Z,-0.70
2023-03-12T04:18:20.041Z,-0.70
2023-03-12T04:20:46.800Z,-0.60
2023-03-12T04:23:13.506Z,-0.60
2023-03-12T04:25:40.535Z,-0.70
2023-03-12T04:28:07.330Z,-0.70
2023-03-12T04:30:34.354Z,-0.70
2023-03-12T04:33:00.988Z,-0.60
2023-03-12T04:35:28.644Z,-0.60
2023-03-12T04:37:55.267Z,-0.60
2023-03-12T04:40:22.378Z,-0.60
2023-03-12T04:42:49.158Z,-0.60
2023-03-12T04:45:15.908Z,-0.60
2023-03-12T04:47:42.823Z,-0.50
2023-03-12T04:50:10.276Z,-0.50
2023-03-12T04:52:37.046Z,-0.60
2023-03-12T04:55:04.154Z,-0.60
2023-03-12T04:57:30.905Z,-0.50
2023-03-12T04:59:57.695Z,-0.40
2023-03-12T05:02:24.494Z,-0.40
2023-03-12T05:04:51.272Z,-0.40
2023-03-12T05:07:18.006Z,-0.40
2023-03-12T05:09:46.403Z,-0.40
2023-03-12T05:12:13.179Z,-0.30
2023-03-12T05:14:40.040Z,-0.30
2023-03-12T05:17:07.124Z,-0.20
2023-03-12T05:19:33.898Z,-0.30
2023-03-12T05:22:00.665Z,-0.30
2023-03-12T05:24:28.519Z,-0.30
2023-03-12T05:26:55.354Z,-0.20
2023-03-12T05:29:22.353Z,-0.30
2023-03-12T05:31:49.861Z,-0.20
2023-03-12T05:34:16.939Z,-0.30
2023-03-12T05:36:44.219Z,-0.30
2023-03-12T05:39:10.947Z,-0.20
2023-03-12T05:41:38.011Z,-0.20
2023-03-12T05:44:04.868Z,-0.10
2023-03-12T05:46:31.795Z,-0.10
2023-03-12T05:48:59.106Z,-0.10
2023-03-12T05:51:25.871Z,-0.10
2023-03-12T05:53:52.626Z,-0.10
2023-03-12T05:56:19.287Z,-0.10
2023-03-12T05:58:49.356Z,-0.10
2023-03-12T06:01:26.051Z,0.00
2023-03-12T06:03:52.814Z,0.00
2023-03-12T06:06:19.904Z,0.00
2023-03-12T06:08:46.696Z,0.20
2023-03-12T06:11:13.715Z,0.00
2023-03-12T06:13:40.951Z,0.10
2023-03-12T06:16:12.136Z,0.10
2023-03-12T06:18:39.010Z,0.10
2023-03-12T06:21:20.767Z,0.00
2023-03-12T06:23:48.186Z,0.00
2023-03-12T06:26:15.966Z,0.10
2023-03-12T06:28:42.797Z,0.10
2023-03-12T06:31:10.732Z,0.10
2023-03-12T06:33:37.877Z,0.20
2023-03-12T06:36:06.574Z,0.20
2023-03-12T06:38:34.004Z,0.10
2023-03-12T06:41:04.146Z,0.10
2023-03-12T06:43:33.549Z,0.10
2023-03-12T06:46:01.830Z,0.10
2023-03-12T06:48:30.521Z,0.20
2023-03-12T06:50:57.266Z,0.20
2023-03-12T06:53:25.789Z,0.20
2023-03-12T06:55:52.687Z,0.20
2023-03-12T06:58:19.699Z,0.20
2023-03-12T07:00:46.421Z,0.30
2023-03-12T07:03:13.191Z,0.30
2023-03-12T07:05:40.174Z,0.30
2023-03-12T07:08:06.886Z,0.40
2023-03-12T07:10:33.598Z,0.40
2023-03-12T07:13:00.366Z,0.50
2023-03-12T07:15:27.177Z,0.50
2023-03-12T07:17:53.962Z,0.50
2023-03-12T07:20:20.833Z,0.40
2023-03-12T07:22:48.139Z,0.50
2023-03-12T07:25:15.408Z,0.50
2023-03-12T07:27:43.481Z,0.50
2023-03-12T07:30:11.050Z,0.50
2023-03-12T07:32:38.014Z,0.60
2023-03-12T07:35:05.401Z,0.70
2023-03-12T07:37:32.175Z,0.60
2023-03-12T07:39:59.076Z,0.70
2023-03-12T07:42:25.913Z,0.60
2023-03-12T07:44:52.948Z,0.70
2023-03-12T07:47:24.025Z,0.70
2023-03-12T07:49:51.832Z,0.70
2023-03-12T07:52:20.459Z,0.70
2023-03-12T07:54:47.921Z,0.80
2023-03-12T07:57:14.997Z,0.90
2023-03-12T07:59:41.757Z,1.00
2023-03-12T08:02:11.159Z,1.10
2023-03-12T08:04:38.031Z,1.20
2023-03-12T08:07:07.294Z,1.20
2023-03-12T08:09:35.538Z,1.30
2023-03-12T08:12:02.929Z,1.40
2023-03-12T08:14:31.742Z,1.40
2023-03-12T08:16:59.269Z,1.50
2023-03-12T08:19:26.801Z,1.60
2023-03-12T08:21:53.988Z,1.60
2023-03-12T08:24:22.069Z,1.70
2023-03-12T08:26:48.871Z,1.80
2023-03-12T08:29:16.426Z,1.80
2023-03-12T08:31:57.440Z,1.80
2023-03-12T08:34:30.223Z,1.80
2023-03-12T08:36:56.864Z,1.90
2023-03-12T08:39:23.641Z,1.90
2023-03-12T08:41:51.667Z,2.00
2023-03-12T08:44:18.367Z,2.00
2023-03-12T08:46:44.991Z,2.00
2023-03-12T08:49:11.726Z,2.10
2023-03-12T08:51:38.425Z,2.20
2023-03-12T08:54:05.680Z,2.30
2023-03-12T08:56:33.061Z,2.30
2023-03-12T08:58:59.914Z,2.40
2023-03-12T09:01:26.702Z,2.50
2023-03-12T09:03:55.223Z,2.60
2023-03-12T09:06:22.087Z,2.60
2023-03-12T09:08:51.534Z,2.60
2023-03-12T09:11:18.752Z,2.70
2023-03-12T09:16:32.394Z,2.80
2023-03-12T09:18:59.084Z,3.00
2023-03-12T09:21:25.945Z,3.10
2023-03-12T09:23:53.520Z,3.10
2023-03-12T09:26:20.255Z,3.20
2023-03-12T09:28:46.931Z,3.30
2023-03-12T09:31:13.844Z,3.40
2023-03-12T09:33:40.645Z,3.50
2023-03-12T09:36:07.532Z,3.60
2023-03-12T09:38:35.594Z,3.60
2023-03-12T09:41:05.339Z,3.70
2023-03-12T09:43:45.491Z,3.80
2023-03-12T09:46:19.972Z,3.80
2023-03-12T09:48:47.804Z,3.80
2023-03-12T09:51:24.200Z,3.80
2023-03-12T09:53:58.045Z,3.80
2023-03-12T09:56:27.048Z,3.90
2023-03-12T09:58:54.698Z,3.90
2023-03-12T10:01:57.255Z,4.10
2023-03-12T10:04:52.380Z,4.20
2023-03-12T10:07:43.216Z,4.30
2023-03-12T10:10:21.794Z,4.40
2023-03-12T10:12:58.247Z,4.50
2023-03-12T10:15:48.317Z,4.60
2023-03-12T10:18:42.400Z,4.80
2023-03-12T10:21:33.216Z,5.00
2023-03-12T10:24:20.387Z,5.20
2023-03-12T10:26:51.059Z,5.40
2023-03-12T10:29:22.896Z,5.50
2023-03-12T10:32:02.508Z,5.60
2023-03-12T10:34:47.958Z,5.70
2023-03-12T10:37:28.836Z,5.90
2023-03-12T10:39:56.167Z,6.10
2023-03-12T10:42:25.976Z,6.20
2023-03-12T10:44:56.212Z,6.40
2023-03-12T10:47:51.645Z,6.50
2023-03-12T10:50:20.221Z,6.50
2023-03-12T10:52:49.208Z,6.60
2023-03-12T10:55:23.580Z,6.70
2023-03-12T10:57:50.858Z,6.80
2023-03-12T11:00:24.705Z,6.90
2023-03-12T11:03:03.798Z,7.00
2023-03-12T11:05:49.212Z,7.10
2023-03-12T11:08:28.021Z,7.10
2023-03-12T11:10:56.475Z,7.30
2023-03-12T11:13:23.169Z,7.40
2023-03-12T11:15:51.410Z,7.50
2023-03-12T11:18:25.375Z,7.50
2023-03-12T11:21:13.567Z,7.50
2023-03-12T11:23:58.773Z,7.60
2023-03-12T11:26:31.259Z,7.70
2023-03-12T11:29:23.982Z,7.90
2023-03-12T11:32:33.258Z,8.00
2023-03-12T11:35:00.494Z,8.20
2023-03-12T11:37:38.169Z,8.20
2023-03-12T11:40:16.427Z,8.10
2023-03-12T11:43:01.805Z,8.10
2023-03-12T11:45:34.571Z,8.10
2023-03-12T11:48:07.253Z,8.20
2023-03-12T11:50:40.010Z,8.20
2023-03-12T11:53:47.983Z,8.30
2023-03-12T11:56:26.443Z,8.50
2023-03-12T11:59:16.528Z,8.70
2023-03-12T12:01:49.441Z,8.80
2023-03-12T12:04:34.252Z,9.00
2023-03-12T12:07:14.913Z,9.30
2023-03-12T12:09:50.586Z,9.40
2023-03-12T12:12:49.860Z,9.30
2023-03-12T12:15:44.067Z,9.20
2023-03-12T12:18:45.106Z,9.20
2023-03-12T12:21:44.750Z,9.20
2023-03-12T12:24:32.588Z,9.20
2023-03-12T12:27:18.669Z,9.20
2023-03-12T12:30:04.506Z,9.30
2023-03-12T12:33:09.848Z,9.40
2023-03-12T12:35:41.893Z,9.60
2023-03-12T12:38:30.524Z,9.60
2023-03-12T12:41:10.033Z,9.50
2023-03-12T12:43:42.042Z,9.50
2023-03-12T12:46:28.199Z,9.50
2023-03-12T12:49:03.175Z,9.50
2023-03-12T12:51:36.680Z,9.50
2023-03-12T12:54:16.745Z,9.40
2023-03-12T12:56:54.573Z,9.40
2023-03-12T12:59:36.929Z,9.40
2023-03-12T13:02:12.639Z,9.40
2023-03-12T13:04:40.034Z,9.40
2023-03-12T13:07:13.003Z,9.50
2023-03-12T13:09:54.121Z,9.60
2023-03-12T13:12:25.414Z,9.60
2023-03-12T13:14:55.085Z,9.70
2023-03-12T13:17:21.891Z,9.70
2023-03-12T13:19:59.055Z,9.80
2023-03-12T13:23:05.414Z,9.80
2023-03-12T13:25:53.945Z,9.80
2023-03-12T13:28:26.549Z,9.80
2023-03-12T13:30:54.240Z,9.80
2023-03-12T13:33:45.381Z,9.70
2023-03-12T13:36:23.447Z,9.70
2023-03-12T13:39:19.180Z,9.70
2023-03-12T13:41:45.833Z,9.70
2023-03-12T13:44:27.819Z,9.70
2023-03-12T13:47:05.209Z,9.80
2023-03-12T13:49:58.001Z,9.80
2023-03-12T13:52:27.770Z,9.90
2023-03-12T13:55:08.131Z,9.90
2023-03-12T13:57:50.349Z,9.90
2023-03-12T14:00:47.872Z,9.90
2023-03-12T14:03:31.406Z,9.90
2023-03-12T14:06:00.229Z,9.90
2023-03-12T14:08:32.858Z,9.90
2023-03-12T14:11:21.449Z,9.90
2023-03-12T14:14:00.486Z,9.80
2023-03-12T14:16:43.094Z,9.90
2023-03-12T14:19:13.663Z,9.90
2023-03-12T14:21:42.889Z,10.00
2023-03-12T14:24:27.249Z,9.90
2023-03-12T14:26:56.069Z,10.00
2023-03-12T14:29:28.192Z,10.00
2023-03-12T14:32:03.800Z,10.10
2023-03-12T14:34:42.528Z,10.10
2023-03-12T14:37:32.656Z,10.10
2023-03-12T14:40:08.575Z,10.10
2023-03-12T14:42:36.457Z,10.10
2023-03-12T14:45:06.393Z,10.10
2023-03-12T14:47:41.275Z,10.10
2023-03-12T14:50:21.064Z,10.10
2023-03-12T14:52:48.114Z,10.10
2023-03-12T14:55:18.886Z,10.00
2023-03-12T14:57:46.119Z,10.10
2023-03-12T15:00:22.753Z,10.10
2023-03-12T15:02:51.830Z,10.20
2023-03-12T15:05:21.279Z,10.30
2023-03-12T15:07:50.037Z,10.30
2023-03-12T15:10:20.400Z,10.40
2023-03-12T15:12:48.170Z,10.40
2023-03-12T15:15:44.529Z,10.30
2023-03-12T15:18:18.795Z,10.20
2023-03-12T15:20:47.989Z,10.30
2023-03-12T15:23:17.045Z,10.30
2023-03-12T15:25:45.002Z,10.30
2023-03-12T15:28:11.615Z,10.20
2023-03-12T15:30:40.440Z,10.20
2023-03-12T15:33:16.153Z,10.20
2023-03-12T15:35:58.781Z,10.20
2023-03-12T15:38:26.536Z,10.20
2023-03-12T15:40:59.056Z,10.20
2023-03-12T15:43:27.067Z,10.10
2023-03-12T15:46:05.269Z,10.10
2023-03-12T15:48:40.738Z,10.20
2023-03-12T15:51:36.846Z,10.20
2023-03-12T15:54:25.363Z,10.20
2023-03-12T15:56:52.060Z,10.20
2023-03-12T15:59:25.882Z,10.20
2023-03-12T16:01:54.878Z,10.10
2023-03-12T16:04:23.236Z,10.10
2023-03-12T16:06:51.330Z,10.10
2023-03-12T16:09:24.511Z,10.10
2023-03-12T16:11:52.832Z,10.10
2023-03-12T16:14:24.744Z,10.10
2023-03-12T16:16:51.610Z,10.10
2023-03-12T16:19:21.635Z,10.00
2023-03-12T16:21:51.781Z,10.00
2023-03-12T16:24:18.580Z,10.00
2023-03-12T16:26:54.242Z,10.00
2023-03-12T16:29:22.264Z,10.00
2023-03-12T16:31:55.498Z,9.90
2023-03-12T16:34:22.733Z,10.00
2023-03-12T16:36:49.440Z,9.90
2023-03-12T16:39:18.692Z,9.80
2023-03-12T16:41:45.975Z,9.80
2023-03-12T16:44:19.836Z,9.80
2023-03-12T16:46:46.905Z,9.80
2023-03-12T16:49:16.153Z,9.80
2023-03-12T16:51:43.305Z,9.80
2023-03-12T16:54:12.033Z,9.70
2023-03-12T16:56:43.464Z,9.70
2023-03-12T16:59:28.549Z,9.70
2023-03-12T17:01:55.902Z,9.60
2023-03-12T17:04:23.188Z,9.60
2023-03-12T17:06:49.899Z,9.50
2023-03-12T17:09:16.645Z,9.50
2023-03-12T17:11:43.618Z,9.50
2023-03-12T17:14:19.801Z,9.50
2023-03-12T17:16:46.621Z,9.50
2023-03-12T17:19:13.685Z,9.40
2023-03-12T17:21:42.630Z,9.40
2023-03-12T17:24:13.963Z,9.30
2023-03-12T17:26:41.706Z,9.30
2023-03-12T17:29:08.534Z,9.20
2023-03-12T17:31:37.471Z,9.20
2023-03-12T17:34:04.993Z,9.10
2023-03-12T17:36:31.735Z,9.00
2023-03-12T17:38:58.554Z,9.00
2023-03-12T17:41:27.152Z,8.90
2023-03-12T17:43:54.828Z,8.90
2023-03-12T17:46:21.751Z,8.90
2023-03-12T17:48:48.601Z,8.70
2023-03-12T17:51:15.286Z,8.70
2023-03-12T17:53:42.286Z,8.70
2023-03-12T17:56:12.405Z,8.60
2023-03-12T17:58:39.461Z,8.60
2023-03-12T18:01:06.938Z,8.50
2023-03-12T18:03:33.960Z,8.50
2023-03-12T18:06:01.209Z,8.50
2023-03-12T18:08:28.447Z,8.50
2023-03-12T18:10:55.520Z,8.40
2023-03-12T18:13:22.801Z,8.40
2023-03-12T18:15:54.731Z,8.40
2023-03-12T18:18:22.852Z,8.40
2023-03-12T18:20:50.184Z,8.30
2023-03-12T18:23:17.800Z,8.30
2023-03-12T18:25:48.651Z,8.30
2023-03-12T18:28:16.834Z,8.30
2023-03-12T18:30:48.008Z,8.30
2023-03-12T18:33:16.681Z,8.20
2023-03-12T18:35:44.084Z,8.10
2023-03-12T18:38:11.250Z,8.10
2023-03-12T18:40:38.470Z,8.00
2023-03-12T18:43:05.744Z,8.00
2023-03-12T18:45:33.070Z,7.90
2023-03-12T18:48:00.062Z,7.90
2023-03-12T18:50:27.945Z,7.80
2023-03-12T18:52:55.970Z,7.80
2023-03-12T18:55:23.326Z,7.80
2023-03-12T18:57:50.637Z,7.80
2023-03-12T19:00:18.837Z,7.80
2023-03-12T19:02:48.061Z,7.70
2023-03-12T19:05:15.538Z,7.70
2023-03-12T19:07:42.788Z,7.60
2023-03-12T19:10:10.815Z,7.60
2023-03-12T19:12:50.944Z,7.60
2023-03-12T19:15:19.309Z,7.60
2023-03-12T19:17:46.242Z,7.60
2023-03-12T19:20:13.372Z,7.60
2023-03-12T19:22:40.142Z,7.60
2023-03-12T19:25:07.265Z,7.60
2023-03-12T19:27:34.133Z,7.50
2023-03-12T19:30:03.102Z,7.50
2023-03-12T19:32:40.559Z,7.40
2023-03-12T19:35:11.172Z,7.40
2023-03-12T19:37:37.938Z,7.30
2023-03-12T19:40:08.540Z,7.20
2023-03-12T19:42:35.223Z,7.20
2023-03-12T19:45:01.965Z,7.10
2023-03-12T19:47:29.298Z,7.10
2023-03-12T19:49:56.304Z,7.10
2023-03-12T19:52:23.626Z,7.00
2023-03-12T19:55:03.189Z,7.00
2023-03-12T19:57:30.809Z,6.90
2023-03-12T19:59:57.664Z,6.80
2023-03-12T20:02:24.747Z,6.80
2023-03-12T20:04:51.761Z,6.70
2023-03-12T20:07:18.559Z,6.70
2023-03-12T20:09:45.364Z,6.60
2023-03-12T20:12:12.278Z,6.60
2023-03-12T20:14:40.815Z,6.60
2023-03-12T20:17:09.854Z,6.60
2023-03-12T20:19:36.876Z,6.60
2023-03-12T20:22:03.593Z,6.50
2023-03-12T20:24:30.697Z,6.50
2023-03-12T20:26:57.536Z,6.50
2023-03-12T20:29:24.260Z,6.50
2023-03-12T20:31:51.725Z,6.50
2023-03-12T20:34:18.988Z,6.50
2023-03-12T20:36:46.118Z,6.40
2023-03-12T20:39:13.525Z,6.40
2023-03-12T20:41:40.811Z,6.40
2023-03-12T20:44:07.773Z,6.40
2023-03-12T20:46:34.817Z,6.40
2023-03-12T20:49:01.877Z,6.40
2023-03-12T20:51:28.615Z,6.40
2023-03-12T20:53:55.451Z,6.30
2023-03-12T20:56:22.668Z,6.30
2023-03-12T20:58:49.830Z,6.30
2023-03-12T21:01:16.974Z,6.20
2023-03-12T21:03:43.801Z,6.20
2023-03-12T21:06:10.486Z,6.20
2023-03-12T21:08:37.361Z,6.20
2023-03-12T21:11:07.585Z,6.20
2023-03-12T21:13:34.761Z,6.20
2023-03-12T21:16:04.224Z,6.20
2023-03-12T21:18:30.963Z,6.20
2023-03-12T21:21:05.569Z,6.20
2023-03-12T21:23:35.379Z,6.20
2023-03-12T21:26:07.167Z,6.20
2023-03-12T21:28:35.654Z,6.10
2023-03-12T21:31:13.955Z,6.10
2023-03-12T21:33:41.496Z,6.10
2023-03-12T21:36:10.720Z,6.10
2023-03-12T21:38:38.661Z,6.00
2023-03-12T21:41:07.274Z,5.90
2023-03-12T21:43:35.047Z,5.90
2023-03-12T21:46:14.262Z,5.90
2023-03-12T21:48:43.178Z,5.90
2023-03-12T21:51:11.804Z,5.90
2023-03-12T21:53:39.105Z,5.80
2023-03-12T21:56:08.142Z,5.80
2023-03-12T21:58:36.081Z,5.80
2023-03-12T22:01:14.247Z,5.70
2023-03-12T22:03:42.178Z,5.70
2023-03-12T22:06:10.195Z,5.60
2023-03-12T22:08:38.138Z,5.60
2023-03-12T22:11:06.448Z,5.50
2023-03-12T22:13:33.752Z,5.50
2023-03-12T22:16:03.572Z,5.50
2023-03-12T22:18:30.498Z,5.50
2023-03-12T22:21:03.586Z,5.40
2023-03-12T22:23:30.828Z,5.40
2023-03-12T22:26:05.025Z,5.40
2023-03-12T22:28:33.232Z,5.40
2023-03-12T22:31:02.353Z,5.40
2023-03-12T22:33:30.116Z,5.30
2023-03-12T22:35:57.066Z,5.30
2023-03-12T22:38:24.679Z,5.30
2023-03-12T22:40:53.168Z,5.30
2023-03-12T22:43:21.985Z,5.20
2023-03-12T22:45:53.885Z,5.20
2023-03-12T22:48:20.685Z,5.20
2023-03-12T22:50:54.135Z,5.20
2023-03-12T22:53:21.341Z,5.20
2023-03-12T22:55:55.987Z,5.10
2023-03-12T22:58:22.821Z,5.10
2023-03-12T23:00:49.810Z,5.00
2023-03-12T23:03:16.617Z,5.10
2023-03-12T23:05:43.559Z,5.00
2023-03-12T23:08:10.635Z,5.00
2023-03-12T23:10:37.375Z,5.00
2023-03-12T23:13:04.544Z,5.00
2023-03-12T23:15:40.436Z,4.90
2023-03-12T23:18:08.466Z,4.80
2023-03-12T23:20:35.254Z,4.80
2023-03-12T23:23:02.258Z,4.80
2023-03-12T23:25:28.944Z,4.80
2023-03-12T23:27:55.772Z,4.70
2023-03-12T23:30:22.696Z,4.80
2023-03-12T23:32:49.683Z,4.70
2023-03-12T23:35:16.697Z,4.70
2023-03-12T23:37:43.785Z,4.70
2023-03-12T23:40:11.403Z,4.70
2023-03-12T23:42:38.192Z,4.60
2023-03-12T23:45:05.680Z,4.60
2023-03-12T23:47:32.636Z,4.60
2023-03-12T23:49:59.424Z,4.70
2023-03-12T23:52:27.138Z,4.70
2023-03-12T23:54:53.869Z,4.70
2023-03-12T23:57:20.696Z,4.80
2023-03-12T23:59:47.615Z,4.70
